Time;durP1;ratioP1;P1;durP2;ratioP2;P2;SDS_P1;SDS_P2;PMS_P1;PMS_P2;Temp;Humidity;BMP_temperature;BMP_pressure;BME280_temperature;BME280_humidity;BME280_pressure;Samples;Min_cycle;Max_cycle;Signal;HPM_P1;HPM_P2
2022/10/22 00:00:47;;;;;;;;;;;23.30;46.50;;;;;;474590;251;1221;-54
2022/10/22 00:02:49;;;;;;;;;;;23.30;46.50;;;;;;474579;251;1167;-53
2022/10/22 00:04:50;;;;;;;;;;;23.30;46.50;;;;;;474599;251;1217;-54
2022/10/22 00:06:51;;;;;;;;;;;23.30;46.50;;;;;;474584;251;2169;-53
2022/10/22 00:08:53;;;;;;;;;;;23.30;46.50;;;;;;474745;251;1205;-53
2022/10/22 00:10:54;;;;;;;;;;;23.30;46.50;;;;;;474704;251;1259;-53
2022/10/22 00:12:56;;;;;;;;;;;23.30;46.50;;;;;;474798;251;1170;-54
2022/10/22 00:14:57;;;;;;;;;;;23.30;46.50;;;;;;474582;251;1310;-54
2022/10/22 00:16:59;;;;;;;;;;;23.30;46.60;;;;;;475017;251;1239;-54
2022/10/22 00:19:00;;;;;;;;;;;23.30;46.50;;;;;;474620;251;1579;-53
2022/10/22 00:21:02;;;;;;;;;;;23.30;46.50;;;;;;474693;251;1345;-53
2022/10/22 00:23:03;;;;;;;;;;;23.30;46.50;;;;;;474622;251;1344;-53
2022/10/22 00:25:04;;;;;;;;;;;23.30;46.60;;;;;;474534;251;1226;-54
2022/10/22 00:27:06;;;;;;;;;;;23.30;46.60;;;;;;474661;251;2161;-53
2022/10/22 00:29:07;;;;;;;;;;;23.30;46.50;;;;;;474795;251;1244;-53
2022/10/22 00:31:08;;;;;;;;;;;23.30;46.50;;;;;;474608;251;1743;-53
2022/10/22 00:33:10;;;;;;;;;;;23.30;46.50;;;;;;474740;251;1269;-53
2022/10/22 00:35:11;;;;;;;;;;;23.30;46.50;;;;;;474976;251;1215;-54
2022/10/22 00:37:12;;;;;;;;;;;23.30;46.50;;;;;;474845;251;1363;-53
2022/10/22 00:39:15;;;;;;;;;;;23.30;46.60;;;;;;474807;251;1298;-54
2022/10/22 00:41:15;;;;;;;;;;;23.30;46.60;;;;;;474524;251;2384;-53
2022/10/22 00:43:16;;;;;;;;;;;23.30;46.60;;;;;;474855;251;1257;-54
2022/10/22 00:45:17;;;;;;;;;;;23.30;46.60;;;;;;474592;251;1274;-53
2022/10/22 00:47:19;;;;;;;;;;;23.30;46.60;;;;;;474798;251;2188;-53
2022/10/22 00:49:20;;;;;;;;;;;23.30;46.60;;;;;;474704;251;1247;-53
2022/10/22 00:51:21;;;;;;;;;;;23.30;46.60;;;;;;474648;251;1184;-53
2022/10/22 00:53:23;;;;;;;;;;;23.30;46.60;;;;;;474604;251;1311;-53
2022/10/22 00:55:24;;;;;;;;;;;23.30;46.60;;;;;;474636;251;1312;-54
2022/10/22 00:57:25;;;;;;;;;;;23.30;46.60;;;;;;475021;251;1314;-54
2022/10/22 00:59:27;;;;;;;;;;;23.30;46.60;;;;;;474692;251;1158;-53
2022/10/22 01:01:28;;;;;;;;;;;23.30;46.60;;;;;;474550;251;1246;-53
2022/10/22 01:03:30;;;;;;;;;;;23.30;46.60;;;;;;474706;251;1291;-54
2022/10/22 01:05:31;;;;;;;;;;;23.30;46.60;;;;;;474550;251;1258;-53
2022/10/22 01:07:32;;;;;;;;;;;23.30;46.60;;;;;;474676;251;2117;-54
2022/10/22 01:09:34;;;;;;;;;;;23.30;46.60;;;;;;474993;251;1225;-53
2022/10/22 01:11:35;;;;;;;;;;;23.30;46.70;;;;;;474538;251;1790;-53
2022/10/22 01:13:36;;;;;;;;;;;23.30;46.60;;;;;;475014;251;1323;-53
2022/10/22 01:15:38;;;;;;;;;;;23.30;46.70;;;;;;474776;251;1211;-53
2022/10/22 01:17:39;;;;;;;;;;;23.30;46.70;;;;;;474579;251;1502;-53
2022/10/22 01:19:40;;;;;;;;;;;23.30;46.70;;;;;;474601;251;1194;-53
2022/10/22 01:21:42;;;;;;;;;;;23.30;46.60;;;;;;474459;251;1354;-53
2022/10/22 01:23:43;;;;;;;;;;;23.30;46.60;;;;;;474806;251;1166;-53
2022/10/22 01:25:45;;;;;;;;;;;23.30;46.60;;;;;;474840;251;2161;-53
2022/10/22 01:27:46;;;;;;;;;;;23.30;46.60;;;;;;474489;251;1318;-54
2022/10/22 01:29:47;;;;;;;;;;;23.30;46.60;;;;;;474747;251;1573;-53
2022/10/22 01:31:49;;;;;;;;;;;23.30;46.70;;;;;;474555;251;1298;-54
2022/10/22 01:33:50;;;;;;;;;;;23.30;46.70;;;;;;474598;251;1300;-54
2022/10/22 01:35:51;;;;;;;;;;;23.30;46.70;;;;;;474635;251;1309;-54
2022/10/22 01:37:53;;;;;;;;;;;23.30;46.80;;;;;;474526;251;1250;-53
2022/10/22 01:39:54;;;;;;;;;;;23.30;46.80;;;;;;474680;251;1200;-53
2022/10/22 01:41:55;;;;;;;;;;;23.30;46.80;;;;;;474784;251;1241;-53
2022/10/22 01:43:57;;;;;;;;;;;23.30;46.80;;;;;;475007;251;1199;-53
2022/10/22 01:45:58;;;;;;;;;;;23.30;46.80;;;;;;474614;251;2174;-53
2022/10/22 01:47:59;;;;;;;;;;;23.30;46.80;;;;;;474803;251;1272;-53
2022/10/22 01:50:01;;;;;;;;;;;23.30;46.80;;;;;;474675;251;1536;-54
2022/10/22 01:52:02;;;;;;;;;;;23.30;46.80;;;;;;474618;251;1445;-53
2022/10/22 01:54:03;;;;;;;;;;;23.30;46.80;;;;;;474543;251;1256;-53
2022/10/22 01:56:04;;;;;;;;;;;23.20;46.80;;;;;;474640;251;1355;-53
2022/10/22 01:58:06;;;;;;;;;;;23.20;46.80;;;;;;474586;251;1265;-54
2022/10/22 02:00:07;;;;;;;;;;;23.30;46.90;;;;;;474955;251;1245;-54
2022/10/22 02:02:08;;;;;;;;;;;23.30;46.90;;;;;;474633;251;1249;-53
2022/10/22 02:04:10;;;;;;;;;;;23.30;46.90;;;;;;474758;251;1244;-53
2022/10/22 02:06:11;;;;;;;;;;;23.30;46.80;;;;;;474944;251;2161;-53
2022/10/22 02:08:12;;;;;;;;;;;23.30;46.70;;;;;;474570;251;1267;-53
2022/10/22 02:10:14;;;;;;;;;;;23.20;46.50;;;;;;475033;251;1265;-53
2022/10/22 02:12:15;;;;;;;;;;;23.30;46.50;;;;;;474579;251;1211;-53
2022/10/22 02:14:16;;;;;;;;;;;23.30;46.40;;;;;;474624;251;1218;-54
2022/10/22 02:16:18;;;;;;;;;;;23.30;46.40;;;;;;474777;251;1303;-53
2022/10/22 02:18:19;;;;;;;;;;;23.20;46.40;;;;;;474901;251;1517;-54
2022/10/22 02:20:20;;;;;;;;;;;23.30;46.20;;;;;;474968;251;1236;-53
2022/10/22 02:22:22;;;;;;;;;;;23.30;46.10;;;;;;474707;251;1248;-53
2022/10/22 02:24:23;;;;;;;;;;;23.30;46.00;;;;;;474612;251;1192;-53
2022/10/22 02:26:24;;;;;;;;;;;23.30;45.90;;;;;;474633;251;2158;-53
2022/10/22 02:28:26;;;;;;;;;;;23.30;45.90;;;;;;474633;251;1240;-53
2022/10/22 02:30:27;;;;;;;;;;;23.30;45.90;;;;;;474641;251;1227;-53
2022/10/22 02:32:28;;;;;;;;;;;23.30;45.80;;;;;;474618;251;1242;-54
2022/10/22 02:34:30;;;;;;;;;;;23.30;45.80;;;;;;475027;251;1240;-54
2022/10/22 02:36:31;;;;;;;;;;;23.30;45.70;;;;;;474818;251;1438;-54
2022/10/22 02:38:33;;;;;;;;;;;23.30;45.60;;;;;;474593;251;1580;-54
2022/10/22 02:40:34;;;;;;;;;;;23.30;45.50;;;;;;474602;251;1247;-53
2022/10/22 02:42:36;;;;;;;;;;;23.30;45.40;;;;;;474531;251;1394;-53
2022/10/22 02:44:37;;;;;;;;;;;23.30;45.40;;;;;;474884;251;1258;-53
2022/10/22 02:46:38;;;;;;;;;;;23.30;45.40;;;;;;474838;251;2161;-54
2022/10/22 02:48:40;;;;;;;;;;;23.30;45.40;;;;;;474685;251;1273;-53
2022/10/22 02:50:41;;;;;;;;;;;23.30;45.40;;;;;;474598;251;1174;-53
2022/10/22 02:52:42;;;;;;;;;;;23.30;45.20;;;;;;474542;251;1496;-53
2022/10/22 02:54:47;;;;;;;;;;;23.30;45.20;;;;;;474884;251;1211;-53
2022/10/22 02:56:48;;;;;;;;;;;23.30;45.20;;;;;;474568;251;1426;-54
2022/10/22 02:58:49;;;;;;;;;;;23.30;45.00;;;;;;474967;251;1231;-53
2022/10/22 03:00:51;;;;;;;;;;;23.30;45.00;;;;;;474855;251;1238;-53
2022/10/22 03:02:52;;;;;;;;;;;23.30;45.00;;;;;;474592;251;1398;-54
2022/10/22 03:04:53;;;;;;;;;;;23.30;45.00;;;;;;474842;251;1234;-53
2022/10/22 03:06:55;;;;;;;;;;;23.40;44.90;;;;;;474753;251;2172;-54
2022/10/22 03:08:56;;;;;;;;;;;23.30;44.80;;;;;;474524;251;1354;-54
2022/10/22 03:10:57;;;;;;;;;;;23.40;44.80;;;;;;474703;251;1239;-54
2022/10/22 03:12:59;;;;;;;;;;;23.40;44.70;;;;;;474544;251;1416;-53
2022/10/22 03:15:00;;;;;;;;;;;23.40;44.70;;;;;;474710;251;1659;-53
2022/10/22 03:17:01;;;;;;;;;;;23.30;44.60;;;;;;474550;251;1311;-54
2022/10/22 03:19:03;;;;;;;;;;;23.30;44.70;;;;;;474660;251;1523;-54
2022/10/22 03:21:04;;;;;;;;;;;23.30;44.60;;;;;;474559;251;1326;-54
2022/10/22 03:23:06;;;;;;;;;;;23.30;44.60;;;;;;474752;251;1362;-54
2022/10/22 03:25:07;;;;;;;;;;;23.30;44.60;;;;;;474543;251;1272;-53
2022/10/22 03:27:08;;;;;;;;;;;23.40;44.60;;;;;;474847;250;2162;-54
2022/10/22 03:29:10;;;;;;;;;;;23.30;44.40;;;;;;474709;251;1372;-54
2022/10/22 03:31:11;;;;;;;;;;;23.30;44.40;;;;;;474572;251;1229;-53
2022/10/22 03:33:12;;;;;;;;;;;23.40;44.40;;;;;;474653;251;1187;-54
2022/10/22 03:35:14;;;;;;;;;;;23.30;44.30;;;;;;474680;251;1500;-53
2022/10/22 03:37:15;;;;;;;;;;;23.30;44.20;;;;;;474936;251;1333;-53
2022/10/22 03:39:16;;;;;;;;;;;23.40;44.20;;;;;;475001;251;1268;-53
2022/10/22 03:41:18;;;;;;;;;;;23.40;44.20;;;;;;474574;251;1506;-53
2022/10/22 03:43:19;;;;;;;;;;;23.40;44.20;;;;;;474551;251;1204;-53
2022/10/22 03:45:20;;;;;;;;;;;23.40;44.10;;;;;;474621;251;1207;-53
2022/10/22 03:47:23;;;;;;;;;;;23.30;44.00;;;;;;474792;251;2188;-53
2022/10/22 03:49:23;;;;;;;;;;;23.30;44.10;;;;;;474524;251;2315;-53
2022/10/22 03:51:24;;;;;;;;;;;23.30;44.10;;;;;;474551;251;1240;-54
2022/10/22 03:53:26;;;;;;;;;;;23.30;44.00;;;;;;474771;251;1264;-54
2022/10/22 03:55:27;;;;;;;;;;;23.30;44.00;;;;;;474560;251;1225;-53
2022/10/22 03:57:28;;;;;;;;;;;23.30;44.20;;;;;;474999;251;1308;-54
2022/10/22 03:59:30;;;;;;;;;;;23.30;44.40;;;;;;474638;251;1224;-54
2022/10/22 04:01:31;;;;;;;;;;;23.30;44.50;;;;;;474730;251;1295;-54
2022/10/22 04:03:32;;;;;;;;;;;23.30;44.60;;;;;;474652;251;1246;-53
2022/10/22 04:05:34;;;;;;;;;;;23.30;44.70;;;;;;474597;251;1223;-53
2022/10/22 04:07:35;;;;;;;;;;;23.30;44.80;;;;;;474512;251;2208;-53
2022/10/22 04:09:36;;;;;;;;;;;23.20;44.90;;;;;;474822;251;1293;-54
2022/10/22 04:11:38;;;;;;;;;;;23.30;45.00;;;;;;474779;251;1321;-53
2022/10/22 04:13:39;;;;;;;;;;;23.30;45.00;;;;;;474614;251;1322;-53
2022/10/22 04:15:40;;;;;;;;;;;23.30;45.10;;;;;;475021;251;1238;-54
2022/10/22 04:17:42;;;;;;;;;;;23.20;45.10;;;;;;474592;251;1391;-54
2022/10/22 04:19:43;;;;;;;;;;;23.20;45.20;;;;;;474841;251;1259;-53
2022/10/22 04:21:44;;;;;;;;;;;23.20;45.20;;;;;;474696;251;1403;-54
2022/10/22 04:23:46;;;;;;;;;;;23.20;45.20;;;;;;474565;251;1192;-54
2022/10/22 04:25:47;;;;;;;;;;;23.20;45.20;;;;;;474890;251;1236;-53
2022/10/22 04:27:48;;;;;;;;;;;23.20;45.30;;;;;;474740;251;2141;-54
2022/10/22 04:29:50;;;;;;;;;;;23.20;45.30;;;;;;474921;251;1304;-53
2022/10/22 04:31:51;;;;;;;;;;;23.20;45.30;;;;;;475003;251;1228;-53
2022/10/22 04:33:52;;;;;;;;;;;23.20;45.30;;;;;;474578;251;1346;-53
2022/10/22 04:35:54;;;;;;;;;;;23.20;45.30;;;;;;474818;251;1266;-53
2022/10/22 04:37:55;;;;;;;;;;;23.20;45.40;;;;;;474542;251;1381;-54
2022/10/22 04:39:56;;;;;;;;;;;23.10;45.50;;;;;;474678;251;1242;-53
2022/10/22 04:41:58;;;;;;;;;;;23.20;45.50;;;;;;474651;251;1241;-54
2022/10/22 04:43:59;;;;;;;;;;;23.20;45.60;;;;;;474572;251;1593;-54
2022/10/22 04:46:00;;;;;;;;;;;23.20;45.50;;;;;;474684;251;2389;-54
2022/10/22 04:48:02;;;;;;;;;;;23.20;45.60;;;;;;474797;251;2165;-53
2022/10/22 04:50:03;;;;;;;;;;;23.20;45.60;;;;;;474990;251;1242;-53
2022/10/22 04:52:04;;;;;;;;;;;23.20;45.60;;;;;;474774;251;1293;-53
2022/10/22 04:54:06;;;;;;;;;;;23.20;45.60;;;;;;475005;251;1266;-53
2022/10/22 04:56:07;;;;;;;;;;;23.20;45.60;;;;;;475019;251;1253;-54
2022/10/22 04:58:08;;;;;;;;;;;23.10;45.60;;;;;;474575;251;1310;-53
2022/10/22 05:00:10;;;;;;;;;;;23.20;45.60;;;;;;474556;251;1273;-53
2022/10/22 05:02:11;;;;;;;;;;;23.20;45.60;;;;;;475020;251;1190;-53
2022/10/22 05:04:12;;;;;;;;;;;23.10;45.60;;;;;;474630;251;1197;-53
2022/10/22 05:06:14;;;;;;;;;;;23.10;45.70;;;;;;474942;251;1217;-53
2022/10/22 05:08:15;;;;;;;;;;;23.10;45.70;;;;;;474840;251;2201;-53
2022/10/22 05:10:16;;;;;;;;;;;23.10;45.70;;;;;;474907;251;1199;-53
2022/10/22 05:12:18;;;;;;;;;;;23.10;45.70;;;;;;474621;251;1122;-53
2022/10/22 05:14:19;;;;;;;;;;;23.10;45.70;;;;;;474957;251;1107;-54
2022/10/22 05:16:20;;;;;;;;;;;23.10;45.80;;;;;;474914;251;1187;-54
2022/10/22 05:18:22;;;;;;;;;;;23.20;45.80;;;;;;474856;251;1235;-54
2022/10/22 05:20:23;;;;;;;;;;;23.20;45.80;;;;;;474615;251;1206;-54
2022/10/22 05:22:24;;;;;;;;;;;23.10;45.80;;;;;;474759;251;1303;-53
2022/10/22 05:24:25;;;;;;;;;;;23.10;45.80;;;;;;474593;251;1213;-53
2022/10/22 05:26:27;;;;;;;;;;;23.10;45.90;;;;;;474652;251;1307;-54
2022/10/22 05:28:28;;;;;;;;;;;23.10;45.90;;;;;;474898;251;2197;-53
2022/10/22 05:30:29;;;;;;;;;;;23.10;45.90;;;;;;474560;251;1282;-53
2022/10/22 05:32:31;;;;;;;;;;;23.10;45.90;;;;;;474572;251;1288;-53
2022/10/22 05:34:34;;;;;;;;;;;23.10;45.90;;;;;;474617;251;1480;-53
2022/10/22 05:36:34;;;;;;;;;;;23.10;45.90;;;;;;474515;251;2371;-53
2022/10/22 05:38:35;;;;;;;;;;;23.10;45.90;;;;;;474713;251;1284;-53
2022/10/22 05:40:36;;;;;;;;;;;23.10;46.00;;;;;;474891;251;1611;-53
2022/10/22 05:42:38;;;;;;;;;;;23.10;46.00;;;;;;474509;251;1627;-54
2022/10/22 05:44:39;;;;;;;;;;;23.10;46.00;;;;;;474594;251;1614;-54
2022/10/22 05:46:42;;;;;;;;;;;23.10;45.90;;;;;;474476;251;1386;-53
2022/10/22 05:48:42;;;;;;;;;;;23.10;45.90;;;;;;474765;251;2389;-53
2022/10/22 05:50:45;;;;;;;;;;;23.20;45.90;;;;;;474914;251;1388;-53
2022/10/22 05:52:45;;;;;;;;;;;23.10;46.00;;;;;;474432;251;1390;-53
2022/10/22 05:54:46;;;;;;;;;;;23.10;46.00;;;;;;474603;251;1240;-54
2022/10/22 05:56:47;;;;;;;;;;;23.10;46.00;;;;;;474922;251;1220;-53
2022/10/22 05:58:49;;;;;;;;;;;23.10;45.90;;;;;;474607;251;1218;-54
2022/10/22 06:00:50;;;;;;;;;;;23.20;46.00;;;;;;475032;251;1525;-53
2022/10/22 06:02:51;;;;;;;;;;;23.20;46.00;;;;;;474782;251;1199;-54
2022/10/22 06:04:52;;;;;;;;;;;23.20;46.00;;;;;;474688;251;1220;-53
2022/10/22 06:06:54;;;;;;;;;;;23.20;45.90;;;;;;474583;251;1175;-53
2022/10/22 06:08:55;;;;;;;;;;;23.20;45.90;;;;;;474967;251;2176;-54
2022/10/22 06:10:57;;;;;;;;;;;23.20;45.90;;;;;;474583;251;1211;-53
2022/10/22 06:13:00;;;;;;;;;;;23.20;46.00;;;;;;474549;251;1214;-54
2022/10/22 06:14:59;;;;;;;;;;;23.20;46.00;;;;;;474470;251;2427;-53
2022/10/22 06:17:01;;;;;;;;;;;23.20;45.90;;;;;;475030;251;1237;-53
2022/10/22 06:19:02;;;;;;;;;;;23.20;46.00;;;;;;474563;251;1251;-54
2022/10/22 06:21:03;;;;;;;;;;;23.20;45.90;;;;;;474771;251;1210;-54
2022/10/22 06:23:05;;;;;;;;;;;23.20;46.00;;;;;;474686;251;1387;-54
2022/10/22 06:25:07;;;;;;;;;;;23.20;45.90;;;;;;474557;251;1324;-53
2022/10/22 06:27:08;;;;;;;;;;;23.20;45.90;;;;;;474966;251;1163;-54
2022/10/22 06:29:09;;;;;;;;;;;23.20;46.00;;;;;;474986;251;2149;-53
2022/10/22 06:31:10;;;;;;;;;;;23.20;46.00;;;;;;474602;251;1512;-54
2022/10/22 06:33:12;;;;;;;;;;;23.20;46.00;;;;;;474557;251;1305;-53
2022/10/22 06:35:13;;;;;;;;;;;23.20;46.00;;;;;;474670;251;1225;-52
2022/10/22 06:37:14;;;;;;;;;;;23.20;46.00;;;;;;475020;251;1215;-53
2022/10/22 06:39:16;;;;;;;;;;;23.20;45.90;;;;;;474554;251;1265;-53
2022/10/22 06:41:17;;;;;;;;;;;23.20;45.90;;;;;;474582;251;1517;-53
2022/10/22 06:43:18;;;;;;;;;;;23.30;45.90;;;;;;474570;251;1259;-53
2022/10/22 06:45:20;;;;;;;;;;;23.20;45.90;;;;;;474623;251;1661;-53
2022/10/22 06:47:21;;;;;;;;;;;23.20;45.90;;;;;;474580;251;1208;-53
2022/10/22 06:49:22;;;;;;;;;;;23.20;46.00;;;;;;474592;251;2181;-53
2022/10/22 06:51:24;;;;;;;;;;;23.20;46.00;;;;;;474557;251;1341;-53
2022/10/22 06:53:25;;;;;;;;;;;23.20;46.00;;;;;;474794;251;1295;-53
2022/10/22 06:55:26;;;;;;;;;;;23.20;46.00;;;;;;474666;251;1235;-54
2022/10/22 06:57:28;;;;;;;;;;;23.30;46.00;;;;;;474840;251;1277;-53
2022/10/22 06:59:29;;;;;;;;;;;23.30;46.00;;;;;;475011;251;1204;-54
2022/10/22 07:01:30;;;;;;;;;;;23.20;46.10;;;;;;474592;251;1287;-53
2022/10/22 07:03:32;;;;;;;;;;;23.20;46.00;;;;;;474606;251;1306;-54
2022/10/22 07:05:33;;;;;;;;;;;23.20;46.00;;;;;;474578;251;1243;-54
2022/10/22 07:07:34;;;;;;;;;;;23.20;46.00;;;;;;474692;251;1222;-54
2022/10/22 07:09:36;;;;;;;;;;;23.30;46.10;;;;;;474584;251;2130;-53
2022/10/22 07:11:37;;;;;;;;;;;23.20;46.00;;;;;;474845;251;1213;-53
2022/10/22 07:13:39;;;;;;;;;;;23.30;46.00;;;;;;474597;251;1483;-54
2022/10/22 07:15:40;;;;;;;;;;;23.30;46.00;;;;;;474600;251;1234;-54
2022/10/22 07:17:41;;;;;;;;;;;23.30;46.00;;;;;;474986;251;1195;-52
2022/10/22 07:19:43;;;;;;;;;;;23.30;46.00;;;;;;474871;251;1164;-54
2022/10/22 07:21:44;;;;;;;;;;;23.20;46.00;;;;;;474580;251;1100;-53
2022/10/22 07:23:45;;;;;;;;;;;23.20;46.00;;;;;;474767;251;1168;-53
2022/10/22 07:25:47;;;;;;;;;;;23.30;46.10;;;;;;474569;251;1347;-53
2022/10/22 07:27:48;;;;;;;;;;;23.20;46.10;;;;;;474690;251;1227;-53
2022/10/22 07:29:49;;;;;;;;;;;23.30;46.10;;;;;;474570;251;2142;-53
2022/10/22 07:31:51;;;;;;;;;;;23.20;46.00;;;;;;474643;251;1184;-54
2022/10/22 07:33:52;;;;;;;;;;;23.30;46.10;;;;;;474836;251;1270;-53
2022/10/22 07:35:53;;;;;;;;;;;23.30;46.10;;;;;;474593;251;1249;-53
2022/10/22 07:37:55;;;;;;;;;;;23.30;46.10;;;;;;474589;251;1243;-53
2022/10/22 07:39:56;;;;;;;;;;;23.30;46.10;;;;;;474665;251;1289;-54
2022/10/22 07:41:57;;;;;;;;;;;23.20;46.10;;;;;;474559;251;1196;-53
2022/10/22 07:43:59;;;;;;;;;;;23.20;46.10;;;;;;475000;251;1272;-53
2022/10/22 07:46:01;;;;;;;;;;;23.30;46.20;;;;;;474840;251;1477;-54
2022/10/22 07:48:01;;;;;;;;;;;23.30;46.10;;;;;;474526;251;2205;-54
2022/10/22 07:50:03;;;;;;;;;;;23.20;46.10;;;;;;474858;251;1544;-53
2022/10/22 07:52:04;;;;;;;;;;;23.30;46.10;;;;;;474524;251;1274;-53
2022/10/22 07:54:05;;;;;;;;;;;23.20;46.10;;;;;;474562;251;1235;-54
2022/10/22 07:56:06;;;;;;;;;;;23.30;46.20;;;;;;474892;251;1416;-53
2022/10/22 07:58:08;;;;;;;;;;;23.30;46.20;;;;;;474978;251;1668;-53
2022/10/22 08:00:09;;;;;;;;;;;23.30;46.20;;;;;;474545;251;1213;-53
2022/10/22 08:02:10;;;;;;;;;;;23.20;46.10;;;;;;474516;251;1251;-53
2022/10/22 08:04:12;;;;;;;;;;;23.20;46.10;;;;;;474609;251;1321;-53
2022/10/22 08:06:14;;;;;;;;;;;23.30;46.20;;;;;;474551;251;1563;-53
2022/10/22 08:08:15;;;;;;;;;;;23.20;46.20;;;;;;474645;251;2189;-53
2022/10/22 08:10:16;;;;;;;;;;;23.20;46.20;;;;;;474823;251;1248;-54
2022/10/22 08:12:18;;;;;;;;;;;23.20;46.20;;;;;;474516;251;1446;-53
2022/10/22 08:14:19;;;;;;;;;;;23.20;46.30;;;;;;474612;251;1310;-53
2022/10/22 08:16:20;;;;;;;;;;;23.20;46.30;;;;;;474532;251;1220;-54
2022/10/22 08:18:21;;;;;;;;;;;23.20;46.30;;;;;;474856;251;1277;-53
2022/10/22 08:20:23;;;;;;;;;;;23.20;46.30;;;;;;474591;251;1224;-54
2022/10/22 08:22:24;;;;;;;;;;;23.20;46.30;;;;;;474825;251;1270;-53
2022/10/22 08:24:26;;;;;;;;;;;23.20;46.40;;;;;;474572;251;1178;-54
2022/10/22 08:26:27;;;;;;;;;;;23.20;46.40;;;;;;474736;251;1258;-53
2022/10/22 08:28:31;;;;;;;;;;;23.20;46.50;;;;;;474594;251;2173;-54
2022/10/22 08:30:32;;;;;;;;;;;23.20;46.50;;;;;;474837;251;2239;-53
2022/10/22 08:32:31;;;;;;;;;;;23.20;46.40;;;;;;474443;251;2603;-53
2022/10/22 08:34:33;;;;;;;;;;;23.20;46.40;;;;;;474818;251;1272;-54
2022/10/22 08:36:34;;;;;;;;;;;23.20;46.50;;;;;;474599;251;1521;-53
2022/10/22 08:38:35;;;;;;;;;;;23.20;46.50;;;;;;474575;251;1250;-53
2022/10/22 08:40:37;;;;;;;;;;;23.10;46.50;;;;;;474942;251;1228;-54
2022/10/22 08:42:38;;;;;;;;;;;23.10;46.50;;;;;;474989;251;1246;-53
2022/10/22 08:44:39;;;;;;;;;;;23.10;46.60;;;;;;474606;251;1230;-53
2022/10/22 08:46:41;;;;;;;;;;;23.20;46.60;;;;;;474540;251;1426;-54
2022/10/22 08:48:42;;;;;;;;;;;23.10;46.60;;;;;;474934;251;2208;-54
2022/10/22 08:50:43;;;;;;;;;;;23.20;46.60;;;;;;474566;251;1287;-53
2022/10/22 08:52:45;;;;;;;;;;;23.10;46.60;;;;;;474522;251;1249;-53
2022/10/22 08:54:46;;;;;;;;;;;23.10;46.70;;;;;;474671;251;1229;-53
2022/10/22 08:56:47;;;;;;;;;;;23.10;46.70;;;;;;474658;251;1266;-54
2022/10/22 08:58:49;;;;;;;;;;;23.10;46.70;;;;;;474767;251;1275;-53
2022/10/22 09:00:50;;;;;;;;;;;23.10;46.80;;;;;;474559;251;1227;-53
2022/10/22 09:02:51;;;;;;;;;;;23.10;46.80;;;;;;474596;251;1275;-54
2022/10/22 09:04:53;;;;;;;;;;;23.10;46.70;;;;;;474644;251;1332;-54
2022/10/22 09:06:54;;;;;;;;;;;23.10;46.70;;;;;;474511;251;1283;-54
2022/10/22 09:08:55;;;;;;;;;;;23.10;46.70;;;;;;474739;251;2181;-54
2022/10/22 09:10:57;;;;;;;;;;;23.10;46.80;;;;;;474679;251;1190;-54
2022/10/22 09:12:58;;;;;;;;;;;23.10;46.80;;;;;;474696;251;1174;-53
2022/10/22 09:14:59;;;;;;;;;;;23.10;46.80;;;;;;474574;251;1359;-53
2022/10/22 09:17:00;;;;;;;;;;;23.10;46.80;;;;;;474739;251;1202;-52
2022/10/22 09:19:02;;;;;;;;;;;23.10;46.80;;;;;;474593;251;1173;-53
2022/10/22 09:21:03;;;;;;;;;;;23.10;46.90;;;;;;474553;251;1280;-53
2022/10/22 09:23:04;;;;;;;;;;;23.10;46.80;;;;;;474677;251;1208;-53
2022/10/22 09:25:06;;;;;;;;;;;23.10;46.90;;;;;;474579;251;1178;-53
2022/10/22 09:27:07;;;;;;;;;;;23.00;46.80;;;;;;474736;251;1231;-53
2022/10/22 09:29:08;;;;;;;;;;;23.10;46.80;;;;;;474844;251;2197;-53
2022/10/22 09:31:10;;;;;;;;;;;23.10;46.90;;;;;;474573;251;1325;-53
2022/10/22 09:33:11;;;;;;;;;;;23.00;46.90;;;;;;474570;251;1209;-54
2022/10/22 09:35:12;;;;;;;;;;;23.00;46.90;;;;;;474857;251;1293;-53
2022/10/22 09:37:14;;;;;;;;;;;23.00;46.90;;;;;;474639;251;1290;-53
2022/10/22 09:39:15;;;;;;;;;;;23.00;46.90;;;;;;474548;251;1205;-54
2022/10/22 09:41:16;;;;;;;;;;;23.00;46.90;;;;;;474585;251;1263;-53
2022/10/22 09:43:18;;;;;;;;;;;23.00;46.90;;;;;;474614;251;1243;-54
2022/10/22 09:45:19;;;;;;;;;;;23.00;46.90;;;;;;474927;251;1252;-54
2022/10/22 09:47:21;;;;;;;;;;;23.10;46.90;;;;;;474645;251;1332;-54
2022/10/22 09:49:22;;;;;;;;;;;23.00;46.90;;;;;;474886;251;2208;-53
2022/10/22 09:51:23;;;;;;;;;;;23.00;46.90;;;;;;474871;251;1184;-53
2022/10/22 09:53:25;;;;;;;;;;;23.10;46.90;;;;;;474687;251;1304;-54
2022/10/22 09:55:26;;;;;;;;;;;23.00;47.00;;;;;;474978;251;1338;-54
2022/10/22 09:57:28;;;;;;;;;;;23.00;46.90;;;;;;474593;251;1279;-53
2022/10/22 09:59:29;;;;;;;;;;;23.00;46.90;;;;;;474634;251;1213;-53
2022/10/22 10:01:30;;;;;;;;;;;23.00;46.90;;;;;;474684;251;1368;-53
2022/10/22 10:03:32;;;;;;;;;;;23.00;47.10;;;;;;474586;251;1121;-53
2022/10/22 10:05:33;;;;;;;;;;;23.00;47.10;;;;;;475011;251;1345;-53
2022/10/22 10:07:35;;;;;;;;;;;23.00;47.10;;;;;;474558;251;1253;-54
2022/10/22 10:09:36;;;;;;;;;;;23.00;47.10;;;;;;474717;251;2158;-53
2022/10/22 10:11:37;;;;;;;;;;;23.00;47.00;;;;;;474567;251;1633;-53
2022/10/22 10:13:39;;;;;;;;;;;23.00;47.10;;;;;;474552;251;1160;-53
2022/10/22 10:15:40;;;;;;;;;;;23.00;46.90;;;;;;474675;251;1234;-54
2022/10/22 10:17:41;;;;;;;;;;;23.00;46.70;;;;;;474586;251;1452;-53
2022/10/22 10:19:43;;;;;;;;;;;23.00;46.60;;;;;;474965;251;1239;-53
2022/10/22 10:21:44;;;;;;;;;;;23.10;46.40;;;;;;474481;251;1243;-53
2022/10/22 10:23:45;;;;;;;;;;;23.10;46.40;;;;;;474858;251;1225;-53
2022/10/22 10:25:47;;;;;;;;;;;23.10;46.30;;;;;;474844;251;1372;-54
2022/10/22 10:27:48;;;;;;;;;;;23.10;46.30;;;;;;474476;251;1203;-53
2022/10/22 10:29:49;;;;;;;;;;;23.10;46.10;;;;;;474602;251;2208;-53
2022/10/22 10:31:51;;;;;;;;;;;23.10;46.10;;;;;;474920;251;1291;-53
2022/10/22 10:33:52;;;;;;;;;;;23.10;45.90;;;;;;474625;251;1335;-54
2022/10/22 10:35:54;;;;;;;;;;;23.10;45.90;;;;;;474582;251;1176;-53
2022/10/22 10:37:55;;;;;;;;;;;23.10;45.80;;;;;;474539;251;1264;-53
2022/10/22 10:39:56;;;;;;;;;;;23.20;45.80;;;;;;474731;251;1344;-54
2022/10/22 10:41:57;;;;;;;;;;;23.10;45.70;;;;;;474511;251;1262;-53
2022/10/22 10:43:59;;;;;;;;;;;23.20;45.70;;;;;;474649;251;1227;-53
2022/10/22 10:46:00;;;;;;;;;;;23.20;45.70;;;;;;474566;251;1249;-53
2022/10/22 10:48:01;;;;;;;;;;;23.20;45.50;;;;;;474790;251;1685;-54
2022/10/22 10:50:03;;;;;;;;;;;23.20;45.50;;;;;;474554;251;2170;-53
2022/10/22 10:52:04;;;;;;;;;;;23.20;45.40;;;;;;474796;251;1430;-53
2022/10/22 10:54:05;;;;;;;;;;;23.20;45.40;;;;;;474640;251;1556;-53
2022/10/22 10:56:07;;;;;;;;;;;23.20;45.30;;;;;;474990;251;1280;-53
2022/10/22 10:58:08;;;;;;;;;;;23.20;45.30;;;;;;474512;251;1406;-54
2022/10/22 11:00:09;;;;;;;;;;;23.20;45.20;;;;;;474798;251;1577;-53
2022/10/22 11:02:11;;;;;;;;;;;23.20;45.20;;;;;;474574;251;1297;-53
2022/10/22 11:04:12;;;;;;;;;;;23.20;45.10;;;;;;474725;251;1242;-53
2022/10/22 11:06:14;;;;;;;;;;;23.20;45.10;;;;;;474700;251;1298;-53
2022/10/22 11:08:15;;;;;;;;;;;23.20;45.00;;;;;;474487;251;2024;-53
2022/10/22 11:10:16;;;;;;;;;;;23.20;45.00;;;;;;474584;251;2166;-53
2022/10/22 11:12:18;;;;;;;;;;;23.20;45.00;;;;;;474935;251;1233;-54
2022/10/22 11:14:19;;;;;;;;;;;23.20;45.00;;;;;;474985;251;1219;-54
2022/10/22 11:16:21;;;;;;;;;;;23.20;44.90;;;;;;474969;251;1397;-53
2022/10/22 11:18:22;;;;;;;;;;;23.20;44.80;;;;;;474621;251;1243;-53
2022/10/22 11:20:23;;;;;;;;;;;23.20;44.80;;;;;;474988;251;1299;-53
2022/10/22 11:22:25;;;;;;;;;;;23.20;44.70;;;;;;474508;251;1305;-53
2022/10/22 11:24:26;;;;;;;;;;;23.20;44.70;;;;;;474616;251;1343;-54
2022/10/22 11:26:27;;;;;;;;;;;23.20;44.70;;;;;;474762;251;1325;-53
2022/10/22 11:28:29;;;;;;;;;;;23.20;44.70;;;;;;474703;251;1297;-54
2022/10/22 11:30:30;;;;;;;;;;;23.20;44.60;;;;;;474539;251;2157;-54
2022/10/22 11:32:31;;;;;;;;;;;23.20;44.60;;;;;;474790;251;1192;-53
2022/10/22 11:34:33;;;;;;;;;;;23.20;44.50;;;;;;474610;251;1449;-54
2022/10/22 11:36:34;;;;;;;;;;;23.20;44.50;;;;;;474522;251;1228;-54
2022/10/22 11:38:37;;;;;;;;;;;23.20;44.40;;;;;;474629;251;1303;-53
2022/10/22 11:40:37;;;;;;;;;;;23.20;44.30;;;;;;474532;251;2167;-53
2022/10/22 11:42:38;;;;;;;;;;;23.20;44.30;;;;;;474754;251;1294;-54
2022/10/22 11:44:39;;;;;;;;;;;23.20;44.20;;;;;;474612;251;1692;-53
2022/10/22 11:46:41;;;;;;;;;;;23.20;44.20;;;;;;475033;251;1289;-53
2022/10/22 11:48:42;;;;;;;;;;;23.20;44.20;;;;;;474673;251;1174;-53
2022/10/22 11:50:43;;;;;;;;;;;23.20;44.10;;;;;;474603;251;2208;-54
2022/10/22 11:52:45;;;;;;;;;;;23.20;44.10;;;;;;474567;251;1586;-53
2022/10/22 11:54:46;;;;;;;;;;;23.20;44.10;;;;;;474630;251;1309;-53
2022/10/22 11:56:47;;;;;;;;;;;23.20;44.10;;;;;;474775;251;1326;-53